Terminal Aerodrome Forecast
Issued by NWS Louisville, KY

Home | Current Version | Previous Version | Text Only | Print | Product List | Glossary On
Versions: 1 2 3 4 5 6 7 8 9 10 11 12 13 14 15 16
776
FTUS43 KLMK 130520
TAFSDF
TAF
KSDF 130520Z 1306/1412 31009G19KT P6SM -SN BKN035 OVC050
     FM130700 32012G15KT P6SM BKN050
     FM131000 32009KT P6SM SCT050 SCT250
     FM131400 32007KT P6SM FEW250=

USA.gov is the U.S. government's official web portal to all federal, state and local government web resources and services.